Time;durP1;ratioP1;P1;durP2;ratioP2;P2;SDS_P1;SDS_P2;PMS_P1;PMS_P2;Temp;Humidity;BMP_temperature;BMP_pressure;BME280_temperature;BME280_humidity;BME280_pressure;Samples;Min_cycle;Max_cycle;Signal;HPM_P1;HPM_P2
2022/02/09 00:02:33;;;;;;;6.82;4.57;;;;;;;1.16;51.64;99812.06;5040103;28;20077;-86
2022/02/09 00:05:21;;;;;;;8.50;4.67;;;;;;;2.24;52.03;100001.13;5040304;28;20022;-84
2022/02/09 00:08:09;;;;;;;6.10;4.23;;;;;;;2.36;52.17;100013.22;5040269;28;20014;-84
2022/02/09 00:10:34;;;;;;;7.33;3.77;;;;;;;1.43;52.12;99813.59;5039657;28;20026;-85
2022/02/09 00:16:05;;;;;;;8.03;3.93;;;;;;;1.30;52.47;99831.88;5135869;23;20058;-83
2022/02/09 00:18:45;;;;;;;8.17;4.63;;;;;;;0.95;52.27;99800.63;5039900;28;20044;-82
2022/02/09 03:25:44;;;;;;;4.77;2.50;;;;;;;4.05;49.50;100226.47;5419046;23;20089;31
2022/02/09 03:57:45;;;;;;;3.90;2.73;;;;;;;1.61;49.11;99834.84;4678795;26;20045;-83
2022/02/09 04:03:00;;;;;;;4.67;3.07;;;;;;;3.18;48.78;100034.81;6023611;23;20001;-83
2022/02/09 04:05:26;;;;;;;3.57;2.43;;;;;;;2.50;48.77;99975.72;5039943;28;20025;-83
2022/02/09 04:07:56;;;;;;;4.87;2.27;;;;;;;1.88;49.06;99874.44;5040333;28;20081;-84
2022/02/09 04:10:27;;;;;;;5.50;2.90;;;;;;;2.65;48.68;99947.63;5040006;28;20037;-84
2022/02/09 05:43:57;;;;;;;7.87;4.00;;;;;;;1.90;46.65;99799.66;5971706;23;20051;-88
2022/02/09 06:00:06;;;;;;;10.50;5.10;;;;;;;2.00;46.44;99792.78;5908014;23;20032;-85
2022/02/09 06:02:44;;;;;;;7.23;3.70;;;;;;;2.93;45.75;99936.72;5041226;28;20017;-85
2022/02/09 06:11:07;;;;;;;7.37;3.70;;;;;;;3.88;46.07;100133.75;6032578;23;20049;-87
2022/02/09 06:13:50;;;;;;;8.40;4.60;;;;;;;2.19;45.79;99807.84;5040298;28;20046;-85
2022/02/09 06:21:53;;;;;;;8.67;4.40;;;;;;;4.33;46.24;100191.16;5037199;28;20060;-84
2022/02/09 06:24:25;;;;;;;6.93;3.57;;;;;;;3.30;46.14;100028.63;5036537;28;20030;-89
2022/02/09 06:26:51;;;;;;;6.03;3.90;;;;;;;4.14;45.79;100157.81;5004441;28;20040;-91
2022/02/09 06:29:17;;;;;;;11.70;5.20;;;;;;;3.81;45.84;100056.84;5002162;28;20025;-90
2022/02/09 06:31:47;;;;;;;8.13;4.43;;;;;;;3.19;45.85;99973.84;5024240;28;20021;-89
2022/02/09 06:34:15;;;;;;;8.77;5.27;;;;;;;3.95;46.09;100094.91;5020350;28;20487;-87
2022/02/09 06:36:45;;;;;;;9.40;5.27;;;;;;;2.86;46.07;99938.16;5002060;28;20029;-90
2022/02/09 06:39:12;;;;;;;10.73;4.70;;;;;;;4.88;46.29;100260.81;4999202;28;20060;-89
2022/02/09 06:41:39;;;;;;;10.27;5.63;;;;;;;2.97;46.28;99945.97;5017105;28;20414;-90
2022/02/09 06:44:04;;;;;;;12.57;5.30;;;;;;;3.92;46.65;100108.22;5023146;28;20088;-92
2022/02/09 06:46:35;;;;;;;12.40;5.13;;;;;;;5.37;46.55;100338.00;5029358;28;20026;-90
2022/02/09 06:49:07;;;;;;;11.55;6.22;;;;;;;4.91;46.70;100294.56;5030190;28;20026;-88
2022/02/09 06:54:30;;;;;;;10.90;6.27;;;;;;;5.31;47.08;100330.63;5177770;23;20457;-89
2022/02/09 06:59:30;;;;;;;10.83;5.30;;;;;;;4.49;47.21;100189.00;5060397;28;20025;-91
2022/02/09 07:02:05;;;;;;;9.67;4.67;;;;;;;4.05;47.35;100072.31;5046494;28;20482;-91
2022/02/09 07:04:37;;;;;;;9.57;5.27;;;;;;;3.96;47.39;100097.41;5059418;28;20075;-90
2022/02/09 07:07:04;;;;;;;10.63;6.10;;;;;;;5.66;47.48;100305.00;5045988;28;20163;-91
2022/02/09 07:09:30;;;;;;;7.47;4.10;;;;;;;5.64;47.40;100301.66;5052741;28;20115;-92
2022/02/09 07:11:56;;;;;;;7.07;4.40;;;;;;;5.66;47.62;100320.72;5018006;28;20018;-90
2022/02/09 07:14:25;;;;;;;10.30;4.10;;;;;;;4.74;47.70;100188.69;5045637;28;20032;-93
2022/02/09 07:16:52;;;;;;;9.30;4.73;;;;;;;4.88;47.67;100177.09;5055360;28;20036;-93
2022/02/09 07:19:17;;;;;;;7.53;4.20;;;;;;;5.07;47.80;100218.28;5037202;28;20043;-92
2022/02/09 07:21:43;;;;;;;12.60;4.50;;;;;;;5.16;48.06;100199.19;5037023;28;20493;-92
2022/02/09 07:24:18;;;;;;;9.77;5.00;;;;;;;5.32;47.64;100217.94;5036479;28;20085;-93
2022/02/09 07:29:10;;;;;;;11.13;5.03;;;;;;;5.09;48.36;100154.38;5054821;28;20107;-92
2022/02/09 07:31:35;;;;;;;14.30;5.00;;;;;;;6.09;48.62;100306.66;5036418;28;20136;-94
2022/02/09 07:34:01;;;;;;;11.00;4.83;;;;;;;6.11;48.26;100290.81;5035580;28;20095;-94
2022/02/09 07:36:31;;;;;;;9.33;4.43;;;;;;;6.03;48.37;100278.34;5036801;28;20025;-93
2022/02/09 07:38:57;;;;;;;9.67;4.87;;;;;;;5.56;48.33;100214.19;5036639;28;20028;-92
2022/02/09 07:41:22;;;;;;;8.70;5.03;;;;;;;6.09;48.39;100297.97;5033218;28;20025;-92
2022/02/09 07:44:02;;;;;;;7.40;4.40;;;;;;;5.81;48.46;100250.47;5043650;28;20044;-92
2022/02/09 07:52:12;;;;;;;11.70;6.17;;;;;;;5.73;48.61;100258.16;5039938;28;20036;-91
2022/02/09 07:54:37;;;;;;;11.00;5.67;;;;;;;5.88;48.57;100248.16;5026116;28;20032;-90
2022/02/09 07:57:03;;;;;;;9.20;5.47;;;;;;;5.56;48.84;100194.09;5039491;28;20481;-92
2022/02/09 07:59:28;;;;;;;11.27;6.10;;;;;;;5.11;49.24;100094.88;5029986;28;20025;-91
2022/02/09 08:01:54;;;;;;;8.33;4.53;;;;;;;5.92;49.19;100233.84;5046077;28;20031;-91
2022/02/09 08:04:19;;;;;;;7.47;4.77;;;;;;;6.09;48.81;100241.13;5035814;28;20029;-91
2022/02/09 08:06:47;;;;;;;5.83;4.37;;;;;;;6.04;49.10;100231.03;5031392;28;20151;-91
2022/02/09 08:09:29;;;;;;;10.60;4.73;;;;;;;6.18;48.85;100263.94;5033262;28;20032;-92
2022/02/09 08:30:47;;;;;;;8.23;5.13;;;;;;;6.79;49.32;100324.22;5070747;28;20449;-91
2022/02/09 08:33:17;;;;;;;10.82;5.55;;;;;;;6.59;49.73;100304.94;5038439;28;20024;-92
2022/02/09 08:35:48;;;;;;;7.50;4.70;;;;;;;6.85;49.68;100328.91;5042125;28;20036;-91
2022/02/09 08:38:14;;;;;;;9.25;4.60;;;;;;;6.53;49.45;100249.53;5037314;28;20505;-91
2022/02/09 08:40:40;;;;;;;7.53;4.72;;;;;;;7.29;49.46;100366.16;5039100;28;20033;-91
2022/02/09 08:43:06;;;;;;;9.50;5.00;;;;;;;6.75;49.36;100283.44;5034578;28;20025;-91
2022/02/09 08:45:31;;;;;;;10.48;5.45;;;;;;;7.42;49.29;100369.34;5051434;28;20021;-91
2022/02/09 08:47:57;;;;;;;10.20;6.45;;;;;;;7.22;49.44;100344.88;5026986;28;20040;-91
2022/02/09 08:50:24;;;;;;;14.18;6.22;;;;;;;7.51;49.57;100360.66;5033755;28;20025;-90
2022/02/09 08:52:52;;;;;;;8.20;5.43;;;;;;;7.57;49.02;100354.03;5033105;28;20409;-92
2022/02/09 08:55:18;;;;;;;7.05;4.43;;;;;;;7.41;49.21;100332.69;5033337;28;20029;-92
2022/02/09 08:57:44;;;;;;;7.97;5.20;;;;;;;7.62;49.38;100351.81;5034456;28;20052;-91
2022/02/09 09:00:18;;;;;;;11.20;6.10;;;;;;;7.78;49.55;100367.03;5033533;28;20115;-90
2022/02/09 09:02:47;;;;;;;9.70;4.93;;;;;;;6.92;49.24;100242.56;5018803;28;20055;-91
2022/02/09 09:05:24;;;;;;;10.95;5.70;;;;;;;7.76;49.20;100348.75;5032265;28;20087;-91
2022/02/09 09:07:56;;;;;;;9.98;5.63;;;;;;;7.56;49.36;100303.28;5014885;28;20103;-91
2022/02/09 09:10:36;;;;;;;14.77;9.27;;;;;;;7.38;49.27;100270.75;5029747;28;20520;-91
2022/02/09 10:02:57;;;;;;;8.27;4.13;;;;;;;8.62;48.47;100248.69;5048929;28;20039;-91
2022/02/09 10:14:05;;;;;;;8.43;4.47;;;;;;;9.23;48.63;100346.28;5044903;28;20108;-92
2022/02/09 10:33:56;;;;;;;7.78;4.60;;;;;;;10.01;48.47;100352.56;5052811;28;20485;-89
2022/02/09 10:36:22;;;;;;;6.35;4.03;;;;;;;9.29;48.53;100252.63;5016351;28;20099;-89
2022/02/09 10:38:50;;;;;;;5.10;4.28;;;;;;;9.81;48.76;100351.94;5034931;28;20481;-90
2022/02/09 10:41:24;;;;;;;6.70;4.53;;;;;;;9.87;48.67;100339.94;5035801;28;20516;-90
2022/02/09 10:44:10;;;;;;;8.85;5.80;;;;;;;9.88;48.98;100346.88;5033085;28;20032;-89
2022/02/09 10:46:52;;;;;;;7.50;5.05;;;;;;;9.60;49.38;100317.13;5029416;28;20071;-90
2022/02/09 10:49:20;;;;;;;6.53;5.25;;;;;;;9.48;49.13;100306.00;5034185;28;20040;-91
2022/02/09 10:51:49;;;;;;;7.82;6.35;;;;;;;9.52;49.37;100320.53;5036647;28;20033;-89
2022/02/09 10:54:25;;;;;;;13.93;9.65;;;;;;;9.92;48.94;100382.50;5036062;28;20072;-90
2022/02/09 10:56:55;;;;;;;12.65;8.68;;;;;;;9.73;49.18;100343.97;5033932;28;20025;-89
2022/02/09 10:59:23;;;;;;;8.52;5.50;;;;;;;9.87;49.52;100361.88;5050400;28;20032;-89
2022/02/09 11:01:50;;;;;;;11.00;6.57;;;;;;;9.89;49.26;100364.34;5026580;28;20079;-89
2022/02/09 11:04:16;;;;;;;8.63;5.18;;;;;;;9.22;49.43;100266.41;5024676;28;20029;-90
2022/02/09 11:06:44;;;;;;;5.70;4.07;;;;;;;9.20;49.36;100255.19;5032984;28;20147;-89
2022/02/09 11:09:12;;;;;;;6.47;4.50;;;;;;;9.85;49.40;100363.84;5043702;28;20447;-89
2022/02/09 11:11:41;;;;;;;6.25;4.28;;;;;;;9.40;49.37;100279.56;5033213;28;20082;-90
2022/02/09 11:14:11;;;;;;;7.90;4.88;;;;;;;8.84;49.18;100182.41;5051690;28;20028;-88
2022/02/09 11:16:38;;;;;;;6.45;4.20;;;;;;;9.85;49.40;100357.72;5031830;28;20028;-89
2022/02/09 11:19:04;;;;;;;6.47;4.82;;;;;;;9.14;49.38;100254.97;5035767;28;20386;-89
2022/02/09 11:21:34;;;;;;;6.25;4.85;;;;;;;9.40;49.07;100281.38;5029066;28;20032;-91
2022/02/09 11:24:09;;;;;;;5.80;4.35;;;;;;;10.03;49.15;100360.31;5024091;28;20041;-90
2022/02/09 11:43:25;;;;;;;7.30;3.35;;;;;;;10.71;47.96;100358.63;5050875;28;20519;-88
2022/02/09 12:11:36;;;;;;;4.40;3.47;;;;;;;10.20;46.94;100261.84;5050501;28;20043;-88
2022/02/09 12:14:15;;;;;;;7.53;4.03;;;;;;;10.58;46.94;100329.19;5035562;28;20494;-86
2022/02/09 12:17:24;;;;;;;5.88;4.10;;;;;;;9.47;46.74;100138.28;5030028;28;20044;-87
2022/02/09 12:19:52;;;;;;;3.95;3.25;;;;;;;10.23;46.39;100295.00;5035711;28;20494;-87
2022/02/09 12:22:18;;;;;;;6.05;3.50;;;;;;;10.31;46.44;100274.75;5048353;28;20105;-87
2022/02/09 12:24:44;;;;;;;5.32;3.30;;;;;;;10.89;46.31;100363.81;5032725;28;20037;-87
2022/02/09 12:27:12;;;;;;;7.35;4.82;;;;;;;10.91;46.75;100361.81;5026928;28;20040;-88
2022/02/09 12:29:44;;;;;;;6.55;3.92;;;;;;;10.89;46.53;100365.63;5050493;28;20057;-87
2022/02/09 12:32:15;;;;;;;6.15;4.35;;;;;;;10.48;46.61;100283.59;5031546;28;20434;-87
2022/02/09 12:34:53;;;;;;;5.70;4.15;;;;;;;10.81;46.73;100342.63;5048762;28;20160;-88
2022/02/09 12:37:18;;;;;;;6.63;3.25;;;;;;;11.03;45.97;100365.81;5049032;28;20033;-87
2022/02/09 12:40:02;;;;;;;3.75;2.97;;;;;;;10.55;45.42;100284.63;5033164;28;20567;-87
2022/02/09 12:42:33;;;;;;;7.43;4.00;;;;;;;11.07;46.05;100345.19;5025745;28;20057;-87
2022/02/09 12:44:59;;;;;;;5.07;3.50;;;;;;;11.31;45.84;100374.34;5029337;28;20029;-87
2022/02/09 12:47:37;;;;;;;6.88;3.22;;;;;;;11.13;45.23;100336.63;5048962;28;20013;-86
2022/02/09 12:50:07;;;;;;;6.10;3.35;;;;;;;11.34;45.33;100375.84;5053003;28;20040;-86
2022/02/09 12:52:35;;;;;;;5.00;2.97;;;;;;;11.27;45.58;100374.84;5031715;28;20054;-86
2022/02/09 12:55:25;;;;;;;9.07;4.22;;;;;;;11.23;45.99;100373.50;5033702;28;20029;-87
2022/02/09 12:57:53;;;;;;;5.00;3.00;;;;;;;11.21;45.94;100376.31;5022260;28;20047;-85
2022/02/09 13:00:34;;;;;;;5.55;2.80;;;;;;;10.42;45.49;100252.56;5044777;28;20112;-86
2022/02/09 13:03:06;;;;;;;3.88;2.70;;;;;;;10.75;45.57;100316.88;5042385;28;20029;-87
2022/02/09 13:05:45;;;;;;;8.27;4.72;;;;;;;10.88;45.83;100342.81;5020679;28;20106;-87
2022/02/09 13:08:11;;;;;;;5.22;3.28;;;;;;;10.35;46.15;100259.44;5026649;28;20413;-87
2022/02/09 13:10:38;;;;;;;7.30;4.63;;;;;;;11.09;45.84;100375.75;5030244;28;20482;-86
2022/02/09 13:13:16;;;;;;;10.27;4.47;;;;;;;11.08;45.93;100379.38;5015913;28;20019;-86
2022/02/09 14:56:06;;;;;;;151.00;17.67;;;;;;;10.44;41.06;100345.63;5046029;28;20094;-92
2022/02/09 14:58:33;;;;;;;16.02;4.38;;;;;;;10.69;41.11;100392.28;5050230;28;20033;-91
2022/02/09 15:01:14;;;;;;;9.57;4.90;;;;;;;10.76;41.78;100413.63;5030646;28;20550;-91
2022/02/09 15:03:51;;;;;;;7.38;4.53;;;;;;;10.01;42.66;100312.16;5024299;28;20033;-91
2022/02/09 15:11:52;;;;;;;8.95;5.97;;;;;;;10.50;44.96;100403.06;5050932;28;20117;-92
2022/02/09 15:17:28;;;;;;;9.95;5.78;;;;;;;10.35;45.40;100396.69;5036739;28;20032;-91
2022/02/09 15:22:46;;;;;;;8.80;5.07;;;;;;;9.91;46.11;100348.38;5036155;28;20037;-91
2022/02/09 15:25:17;;;;;;;13.60;9.82;;;;;;;10.04;46.43;100393.66;5031320;28;20041;-90
2022/02/09 15:27:43;;;;;;;10.30;7.63;;;;;;;10.14;46.31;100387.28;5021334;28;20045;-90
2022/02/09 15:30:09;;;;;;;10.52;8.13;;;;;;;10.18;46.30;100401.84;5016085;28;20056;-90
2022/02/09 15:32:45;;;;;;;11.27;8.13;;;;;;;8.83;46.16;100176.31;5016096;28;20025;-89
2022/02/09 15:35:23;;;;;;;18.50;9.65;;;;;;;9.67;46.47;100304.19;5015733;28;20112;-90
2022/02/09 15:40:33;;;;;;;23.38;11.10;;;;;;;10.36;46.83;100440.56;5033582;28;20060;-90
2022/02/09 15:56:30;;;;;;;27.15;17.23;;;;;;;10.12;47.23;100420.09;5053479;28;20106;-90
2022/02/09 16:09:38;;;;;;;18.55;13.30;;;;;;;10.30;47.71;100441.19;5034411;28;20041;-90
2022/02/09 16:22:50;;;;;;;21.55;16.15;;;;;;;9.61;47.72;100366.25;5053245;28;20036;-90
2022/02/09 16:25:59;;;;;;;22.80;15.85;;;;;;;9.40;48.33;100363.09;5035443;28;20567;-90
2022/02/09 16:47:04;;;;;;;51.03;36.53;;;;;;;9.91;49.72;100494.28;5041740;28;20497;-90
2022/02/09 16:49:43;;;;;;;52.08;36.75;;;;;;;9.78;49.59;100497.28;5034531;28;20035;-91
2022/02/09 16:52:15;;;;;;;49.38;35.88;;;;;;;9.40;49.82;100440.34;5034462;28;20109;-91
2022/02/09 17:15:34;;;;;;;60.95;38.67;;;;;;;9.73;50.46;100506.63;5052179;28;20035;-90
2022/02/09 17:19:31;;;;;;;49.67;36.90;;;;;;;9.04;51.09;100434.19;5031559;28;20036;-90
2022/02/09 17:21:56;;;;;;;47.67;33.08;;;;;;;9.59;50.92;100507.94;5034151;28;20021;-90
2022/02/09 17:24:22;;;;;;;39.60;28.67;;;;;;;9.13;50.92;100443.00;5034397;28;20120;-90
2022/02/09 17:26:47;;;;;;;41.50;28.13;;;;;;;9.00;51.01;100418.81;5034397;28;20025;-91
2022/02/09 17:29:19;;;;;;;39.63;28.83;;;;;;;9.14;51.33;100476.28;5033852;28;20024;-91
2022/02/09 17:31:54;;;;;;;37.45;28.05;;;;;;;9.14;51.67;100448.13;5034610;28;20017;-90
2022/02/09 17:53:26;;;;;;;19.88;13.68;;;;;;;8.99;52.46;100515.44;5051122;28;20060;-91
2022/02/09 17:56:00;;;;;;;16.75;12.00;;;;;;;9.23;52.48;100543.91;5033404;28;20033;-91
2022/02/09 17:58:30;;;;;;;19.23;14.10;;;;;;;9.13;52.59;100528.13;5033129;28;20033;-90
2022/02/09 18:00:57;;;;;;;17.88;13.65;;;;;;;9.30;52.66;100557.34;5033208;28;20021;-91
2022/02/09 18:03:22;;;;;;;16.75;12.60;;;;;;;9.29;52.59;100559.13;5033112;28;20029;-90
2022/02/09 18:05:51;;;;;;;17.75;13.90;;;;;;;9.06;52.61;100529.69;5033177;28;20032;-90
2022/02/09 18:08:47;;;;;;;18.13;14.52;;;;;;;9.24;53.05;100562.22;5033499;28;20047;-90
2022/02/09 18:30:22;;;;;;;11.32;8.80;;;;;;;8.55;53.98;100535.34;5052688;28;20414;-91
2022/02/09 18:38:17;;;;;;;11.40;9.70;;;;;;;8.12;53.85;100494.47;5051328;28;20038;-91
2022/02/09 18:56:53;;;;;;;10.68;9.40;;;;;;;8.72;54.59;100639.94;5055000;28;20558;-91
2022/02/09 19:04:35;;;;;;;17.58;13.82;;;;;;;8.31;54.81;100577.84;5054982;28;20068;-90
2022/02/09 19:18:10;;;;;;;11.27;10.18;;;;;;;8.01;55.59;100552.44;5034826;28;20036;-91
2022/02/09 19:20:59;;;;;;;11.48;10.13;;;;;;;8.49;55.23;100620.13;5036091;28;20054;-90
2022/02/09 19:29:28;;;;;;;12.57;11.10;;;;;;;7.80;55.43;100546.47;5054109;28;20068;-90
2022/02/09 19:32:08;;;;;;;12.63;10.05;;;;;;;7.95;55.65;100571.41;5053468;28;20032;-91
2022/02/09 19:48:17;;;;;;;12.88;11.48;;;;;;;8.32;56.06;100639.19;5054099;28;20508;-91
2022/02/09 19:56:05;;;;;;;15.13;12.80;;;;;;;7.53;56.03;100540.06;5053855;28;20433;-90
2022/02/09 19:59:16;;;;;;;15.75;13.75;;;;;;;7.54;56.02;100538.25;5035992;28;20036;-91
2022/02/09 20:01:22;;;;;;;15.18;13.35;;;;;;;7.73;56.53;100579.53;5042755;28;20037;-90
2022/02/09 20:03:47;;;;;;;17.05;14.25;;;;;;;8.25;56.21;100684.47;5035582;28;20029;-91
2022/02/09 20:06:13;;;;;;;19.38;16.42;;;;;;;7.56;56.43;100562.59;5035721;28;20413;-91
2022/02/09 20:08:39;;;;;;;17.88;15.98;;;;;;;7.98;56.28;100647.41;5035178;28;20021;-91
2022/02/09 20:11:08;;;;;;;18.67;15.30;;;;;;;7.69;56.13;100599.16;5035067;28;20115;-91
2022/02/09 20:13:34;;;;;;;16.02;13.68;;;;;;;7.53;56.37;100561.06;5035212;28;20025;-91
2022/02/09 20:16:00;;;;;;;15.52;13.43;;;;;;;7.06;55.92;100477.66;5035285;28;20108;-91
2022/02/09 20:18:26;;;;;;;19.83;15.27;;;;;;;7.91;56.21;100626.06;5034964;28;20035;-91
2022/02/09 20:20:55;;;;;;;20.13;17.08;;;;;;;8.25;56.39;100683.63;5034886;28;20044;-91
2022/02/09 20:23:20;;;;;;;16.35;14.00;;;;;;;8.05;56.36;100647.69;5035001;28;20063;-91
2022/02/09 20:25:46;;;;;;;13.70;12.13;;;;;;;7.37;56.34;100552.81;5053026;28;20029;-91
2022/02/09 20:28:11;;;;;;;13.43;11.50;;;;;;;7.80;56.61;100617.47;5035084;28;20115;-91
2022/02/09 20:30:42;;;;;;;13.10;10.55;;;;;;;7.50;56.66;100582.38;5035012;28;20116;-91
2022/02/09 20:33:13;;;;;;;15.07;11.45;;;;;;;7.30;56.92;100594.56;5035116;28;20025;-91
2022/02/09 20:35:38;;;;;;;11.95;10.77;;;;;;;7.48;57.17;100573.78;5034668;28;20039;-91
2022/02/09 20:38:04;;;;;;;13.65;12.18;;;;;;;7.61;56.72;100602.47;5034870;28;20025;-91
2022/02/09 20:40:47;;;;;;;12.95;11.65;;;;;;;7.20;56.88;100550.81;5034637;28;20032;-91
2022/02/09 20:43:14;;;;;;;12.18;10.60;;;;;;;7.82;56.71;100665.47;5034541;28;20032;-91
2022/02/09 20:45:48;;;;;;;12.52;11.23;;;;;;;7.08;57.01;100554.50;5034689;28;20029;-91
2022/02/09 20:48:16;;;;;;;11.77;10.55;;;;;;;7.83;57.00;100675.03;5034436;28;20028;-91
2022/02/09 20:50:43;;;;;;;13.13;11.40;;;;;;;6.87;57.03;100531.72;5034681;28;20397;-91
2022/02/09 20:53:10;;;;;;;12.70;10.70;;;;;;;7.64;56.85;100647.69;5034669;28;20029;-91
2022/02/09 20:55:35;;;;;;;12.23;10.50;;;;;;;7.50;56.83;100615.69;5034644;28;20052;-91
2022/02/09 20:58:02;;;;;;;11.23;10.07;;;;;;;7.34;57.18;100590.72;5034659;28;20060;-91
2022/02/09 21:00:37;;;;;;;13.05;11.00;;;;;;;6.95;57.08;100510.09;5034340;28;20025;-91
2022/02/09 21:13:00;;;;;;;12.52;11.15;;;;;;;7.89;57.51;100709.50;5052613;28;20029;-91
2022/02/09 21:18:24;;;;;;;13.40;12.00;;;;;;;7.80;56.86;100698.97;5052895;28;20036;-91
2022/02/09 21:41:59;;;;;;;11.32;10.10;;;;;;;7.42;58.19;100673.28;5052622;28;20028;-96
2022/02/09 21:55:12;;;;;;;11.73;9.48;;;;;;;7.59;57.64;100684.06;5052698;28;20132;-95
2022/02/09 21:57:50;;;;;;;13.88;11.65;;;;;;;7.31;57.62;100640.03;5034695;28;20032;-95
2022/02/09 22:00:30;;;;;;;11.57;9.90;;;;;;;6.96;57.82;100603.63;5034711;28;20033;-94
2022/02/09 22:16:52;;;;;;;12.23;10.82;;;;;;;7.57;57.86;100696.50;5056344;28;20087;-95
2022/02/09 22:29:53;;;;;;;10.82;9.65;;;;;;;7.11;57.52;100601.50;5055392;28;20064;-91
2022/02/09 22:45:28;;;;;;;11.18;9.95;;;;;;;7.18;57.52;100635.00;5054924;28;20091;-91
2022/02/09 22:48:38;;;;;;;10.38;9.38;;;;;;;7.24;57.23;100642.38;5054553;28;20028;-91
2022/02/09 22:56:32;;;;;;;9.45;8.55;;;;;;;7.16;57.10;100623.78;5054759;28;20437;-91
2022/02/09 22:58:59;;;;;;;10.70;9.60;;;;;;;7.81;57.70;100719.84;5036658;28;20025;-91
2022/02/09 23:01:36;;;;;;;9.75;8.75;;;;;;;7.18;57.41;100634.16;5036796;28;20025;-90
2022/02/09 23:06:52;;;;;;;9.68;8.77;;;;;;;7.07;57.23;100589.59;5054701;28;20024;-91
2022/02/09 23:24:52;;;;;;;9.68;8.77;;;;;;;7.41;56.76;100669.00;5054098;28;20044;-91
